Terminal Aerodrome Forecast
Issued by NWS Huntsville, AL

Home | Current Version | Previous Version | Text Only | Print | Product List | Glossary On
Versions: 1 2 3 4 5 6 7 8 9 10 11 12 13 14 15 16 17 18 19 20 21 22 23 24 25 26 27 28 29 30 31 32 33 34 35
000
FTUS44 KHUN 301123
TAFHSV
TAF
KHSV 301123Z 3012/3112 12005KT 6SM -RA BR SCT025 BKN080
      TEMPO 3014/3016 5SM RA BR BKN030
     FM301600 09006KT 6SM -RA BR SCT030 OVC080
     FM310000 08004KT P6SM SCT010 OVC100
     FM310700 VRB03KT 4SM BR SCT009 BKN030=

USA.gov is the U.S. government's official web portal to all federal, state and local government web resources and services.